Time;durP1;ratioP1;P1;durP2;ratioP2;P2;SDS_P1;SDS_P2;PMS_P1;PMS_P2;Temp;Humidity;BMP_temperature;BMP_pressure;BME280_temperature;BME280_humidity;BME280_pressure;Samples;Min_cycle;Max_cycle;Signal;HPM_P1;HPM_P2
2023/02/18 00:02:20;;;;;;;4.20;2.40;;;;;;;9.41;100.00;100096.00;5039074;28;20479;-59
2023/02/18 00:04:46;;;;;;;5.28;2.70;;;;;;;9.40;100.00;100096.22;5043713;28;20040;-58
2023/02/18 00:07:11;;;;;;;5.40;2.67;;;;;;;9.41;100.00;100095.16;5038048;28;20056;-59
2023/02/18 00:09:37;;;;;;;4.55;2.20;;;;;;;9.38;100.00;100090.25;5040770;28;20041;-60
2023/02/18 00:12:03;;;;;;;3.30;2.00;;;;;;;9.43;100.00;100099.25;5039950;28;20032;-59
2023/02/18 00:14:28;;;;;;;5.03;2.20;;;;;;;9.55;100.00;100107.44;5044295;28;20017;-59
2023/02/18 00:16:54;;;;;;;6.97;2.42;;;;;;;9.56;100.00;100092.19;5042660;28;20400;-59
2023/02/18 00:19:19;;;;;;;6.25;2.30;;;;;;;9.53;100.00;100104.16;5039484;28;20036;-59
2023/02/18 00:21:45;;;;;;;5.88;2.30;;;;;;;9.54;100.00;100105.81;5042584;28;20036;-59
2023/02/18 00:24:14;;;;;;;3.53;2.40;;;;;;;9.64;100.00;100100.81;5045950;28;20032;-59
2023/02/18 00:26:39;;;;;;;7.25;2.40;;;;;;;9.61;100.00;100103.09;5021902;28;20483;-59
2023/02/18 00:29:04;;;;;;;4.57;2.13;;;;;;;9.60;100.00;100099.59;5047070;28;20024;-60
2023/02/18 00:31:32;;;;;;;4.60;1.98;;;;;;;9.61;100.00;100101.25;5041538;28;20039;-59
2023/02/18 00:33:58;;;;;;;3.33;1.90;;;;;;;9.60;100.00;100109.47;5039257;28;20033;-59
2023/02/18 00:36:23;;;;;;;3.45;1.90;;;;;;;9.58;100.00;100101.66;5043244;28;20047;-59
2023/02/18 00:38:51;;;;;;;2.50;1.70;;;;;;;9.54;100.00;100097.78;5042684;28;20103;-59
2023/02/18 00:41:16;;;;;;;3.75;1.90;;;;;;;9.52;100.00;100096.38;5040716;28;20057;-59
2023/02/18 00:43:42;;;;;;;3.35;1.90;;;;;;;9.46;100.00;100098.84;5042956;28;20017;-59
2023/02/18 00:46:07;;;;;;;3.17;1.92;;;;;;;9.49;100.00;100103.78;5037480;28;20140;-59
2023/02/18 00:48:33;;;;;;;4.35;1.70;;;;;;;9.53;100.00;100098.00;5041224;28;20029;-59
2023/02/18 00:50:59;;;;;;;4.10;1.85;;;;;;;9.52;100.00;100096.38;5038714;28;20063;-59
2023/02/18 00:53:26;;;;;;;3.72;1.90;;;;;;;9.49;100.00;100084.22;5042813;28;20039;-59
2023/02/18 00:55:51;;;;;;;3.70;1.95;;;;;;;9.46;100.00;100082.81;5042664;28;20033;-59
2023/02/18 00:58:16;;;;;;;2.90;1.70;;;;;;;9.49;100.00;100082.38;5037218;28;20063;-59
2023/02/18 01:00:42;;;;;;;3.65;1.70;;;;;;;9.54;100.00;100075.56;5039764;28;20025;-60
2023/02/18 01:03:07;;;;;;;2.30;1.50;;;;;;;9.49;100.00;100076.19;5048156;28;20018;-59
2023/02/18 01:05:33;;;;;;;4.07;1.80;;;;;;;9.53;100.00;100081.94;5039778;28;20047;-59
2023/02/18 01:07:58;;;;;;;6.45;1.63;;;;;;;9.54;100.00;100080.91;5049200;28;20037;-59
2023/02/18 01:10:24;;;;;;;3.50;1.85;;;;;;;9.55;100.00;100088.72;5041503;28;20731;-59
2023/02/18 01:12:49;;;;;;;2.53;1.60;;;;;;;9.54;100.00;100063.00;5036484;28;20147;-59
2023/02/18 01:15:14;;;;;;;2.55;1.42;;;;;;;9.59;100.00;100062.34;5039839;28;20033;-58
2023/02/18 01:17:40;;;;;;;4.22;1.70;;;;;;;9.57;100.00;100067.91;5043736;28;20021;-59
2023/02/18 01:20:06;;;;;;;2.80;1.60;;;;;;;9.59;100.00;100057.81;5047647;28;20028;-59
2023/02/18 01:22:31;;;;;;;2.78;1.25;;;;;;;9.56;100.00;100066.28;5040386;28;20025;-59
2023/02/18 01:24:57;;;;;;;2.13;1.60;;;;;;;9.64;100.00;100063.34;5042657;28;20748;-59
2023/02/18 01:27:22;;;;;;;1.70;1.40;;;;;;;9.60;100.00;100050.59;5036296;28;20360;-59
2023/02/18 01:29:47;;;;;;;5.28;1.70;;;;;;;9.55;100.00;100048.56;5044818;28;20017;-60
2023/02/18 01:32:13;;;;;;;3.03;1.50;;;;;;;9.52;100.00;100049.00;5042811;28;20037;-59
2023/02/18 01:34:38;;;;;;;2.15;1.33;;;;;;;9.49;100.00;100036.06;5034801;28;20144;-58
2023/02/18 01:37:04;;;;;;;2.25;1.50;;;;;;;9.50;100.00;100033.16;5040371;28;20040;-58
2023/02/18 01:39:29;;;;;;;1.80;1.40;;;;;;;9.45;100.00;100022.28;5043081;28;20021;-58
2023/02/18 01:41:54;;;;;;;1.60;1.13;;;;;;;9.52;100.00;100030.28;5036132;28;20040;-59
2023/02/18 01:44:22;;;;;;;3.42;1.55;;;;;;;9.50;100.00;100029.66;5040184;28;20029;-58
2023/02/18 01:46:48;;;;;;;1.88;1.40;;;;;;;9.44;100.00;100033.22;5040718;28;20017;-61
2023/02/18 01:49:19;;;;;;;2.15;1.40;;;;;;;9.47;100.00;100019.41;5042073;28;20103;-61
2023/02/18 01:51:47;;;;;;;2.25;1.20;;;;;;;9.54;100.00;100014.81;5048712;28;20037;-60
2023/02/18 01:54:14;;;;;;;2.03;1.13;;;;;;;9.61;100.00;100018.28;5043392;28;20029;-60
2023/02/18 01:56:59;;;;;;;1.02;0.90;;;;;;;9.62;100.00;100011.88;5037754;28;20041;-60
2023/02/18 01:59:33;;;;;;;4.60;1.58;;;;;;;9.58;100.00;100010.66;5026912;28;20037;-60
2023/02/18 02:01:58;;;;;;;1.90;1.30;;;;;;;9.51;100.00;100007.25;5043188;28;20172;-61
2023/02/18 02:04:24;;;;;;;2.30;1.48;;;;;;;9.53;100.00;100007.81;5039996;28;20500;-60
2023/02/18 02:06:49;;;;;;;2.58;1.45;;;;;;;9.47;100.00;100001.47;5038448;28;20021;-61
2023/02/18 02:09:16;;;;;;;1.38;1.20;;;;;;;9.50;100.00;100000.22;5040734;28;20021;-61
2023/02/18 02:12:02;;;;;;;3.78;1.33;;;;;;;9.51;100.00;99996.53;5040916;28;20444;-60
2023/02/18 02:14:42;;;;;;;1.98;1.30;;;;;;;9.56;100.00;100003.88;5038676;28;20037;-60
2023/02/18 02:17:24;;;;;;;1.77;1.20;;;;;;;9.51;100.00;100001.88;5037874;28;20017;-61
2023/02/18 02:20:17;;;;;;;2.33;1.10;;;;;;;9.50;100.00;100001.03;5034016;28;20134;-60
2023/02/18 02:23:01;;;;;;;3.13;1.20;;;;;;;9.58;100.00;99989.25;5040929;28;20152;-60
2023/02/18 02:25:44;;;;;;;1.17;1.05;;;;;;;9.65;100.00;99978.50;5040184;28;20258;-61
2023/02/18 02:28:22;;;;;;;2.17;1.30;;;;;;;9.66;100.00;99985.47;5034091;28;20029;-60
2023/02/18 02:31:22;;;;;;;2.75;1.00;;;;;;;9.62;100.00;99985.13;5036944;28;20133;-60
2023/02/18 02:34:24;;;;;;;4.20;1.15;;;;;;;9.58;100.00;99978.53;4986646;28;20038;-59
2023/02/18 02:36:55;;;;;;;0.80;0.80;;;;;;;9.70;100.00;99982.16;5043116;28;20494;-58
2023/02/18 02:39:25;;;;;;;1.17;0.90;;;;;;;9.68;100.00;99978.91;5025178;28;20040;-60
2023/02/18 02:42:02;;;;;;;2.22;0.95;;;;;;;9.75;100.00;99978.84;5040519;28;20057;-60
2023/02/18 02:44:33;;;;;;;1.08;0.80;;;;;;;9.69;100.00;99967.16;5037508;28;20147;-60
2023/02/18 02:47:10;;;;;;;1.38;1.17;;;;;;;9.67;100.00;99984.47;5043410;28;20033;-60
2023/02/18 02:49:53;;;;;;;1.95;1.00;;;;;;;9.68;100.00;99976.22;5030041;28;20374;-59
2023/02/18 02:52:29;;;;;;;1.52;0.93;;;;;;;9.71;100.00;99977.66;5044316;28;20060;-60
2023/02/18 02:54:54;;;;;;;2.35;1.17;;;;;;;9.73;100.00;99980.91;5028369;28;20041;-59
2023/02/18 02:57:19;;;;;;;1.30;1.20;;;;;;;9.72;100.00;99974.75;5045426;28;20025;-60
2023/02/18 02:59:57;;;;;;;1.27;1.00;;;;;;;9.73;100.00;99970.19;5039911;28;20083;-60
2023/02/18 03:02:33;;;;;;;1.60;1.00;;;;;;;9.70;100.00;99966.09;5038220;28;20067;-60
2023/02/18 03:05:23;;;;;;;1.13;1.02;;;;;;;9.70;100.00;99959.94;5037459;28;20108;-60
2023/02/18 03:07:48;;;;;;;1.10;0.90;;;;;;;9.68;100.00;99951.28;5038464;28;20551;-60
2023/02/18 03:10:48;;;;;;;1.08;0.93;;;;;;;9.77;100.00;99949.19;5042524;28;20045;-60
2023/02/18 03:13:28;;;;;;;1.05;0.93;;;;;;;9.70;100.00;99943.88;5042695;28;20124;-60
2023/02/18 03:16:00;;;;;;;2.50;1.20;;;;;;;9.64;100.00;99945.56;5042011;28;20053;-60
2023/02/18 03:18:39;;;;;;;2.72;0.98;;;;;;;9.68;100.00;99945.94;5038088;28;20033;-60
2023/02/18 03:21:29;;;;;;;1.15;1.00;;;;;;;9.65;100.00;99941.84;5025157;28;20115;-60
2023/02/18 03:24:04;;;;;;;1.85;1.15;;;;;;;9.66;100.00;99942.66;5028340;28;20658;-60
2023/02/18 03:26:30;;;;;;;1.60;1.10;;;;;;;9.60;100.00;99944.34;5039044;28;20044;-60
2023/02/18 03:29:01;;;;;;;1.38;1.10;;;;;;;9.56;100.00;99936.97;5041269;28;20017;-60
2023/02/18 03:31:26;;;;;;;;;;;;;;;9.57;100.00;99928.75;5041560;28;20029;-60
2023/02/18 03:33:54;;;;;;;2.60;1.25;;;;;;;9.55;100.00;99925.47;5070891;28;20337;-61
2023/02/18 03:36:20;;;;;;;1.35;1.10;;;;;;;9.56;100.00;99928.97;5039867;28;20088;-60
2023/02/18 03:39:05;;;;;;;2.13;1.40;;;;;;;9.53;100.00;99927.53;5019521;28;20037;-60
2023/02/18 03:41:31;;;;;;;1.95;1.20;;;;;;;9.53;100.00;99922.19;5049070;28;20037;-60
2023/02/18 03:44:03;;;;;;;2.92;1.42;;;;;;;9.55;100.00;99914.75;5040359;28;20079;-60
2023/02/18 03:46:28;;;;;;;4.07;1.25;;;;;;;9.47;100.00;99920.38;5039305;28;20048;-60
2023/02/18 03:48:54;;;;;;;2.72;1.30;;;;;;;9.45;100.00;99914.44;5017317;28;20029;-60
2023/02/18 03:51:19;;;;;;;1.50;1.10;;;;;;;9.40;100.00;99922.31;5041952;28;20033;-60
2023/02/18 03:53:45;;;;;;;2.25;1.40;;;;;;;9.38;100.00;99914.47;5038609;28;20030;-60
2023/02/18 03:56:11;;;;;;;2.13;1.27;;;;;;;9.46;100.00;99911.56;5044455;28;20032;-60
2023/02/18 03:58:36;;;;;;;3.88;1.50;;;;;;;9.41;100.00;99902.53;5040130;28;20783;-60
2023/02/18 04:01:01;;;;;;;2.60;1.40;;;;;;;9.42;100.00;99899.63;5035445;28;20103;-60
2023/02/18 04:03:27;;;;;;;2.45;1.30;;;;;;;9.45;100.00;99890.34;5047889;28;20024;-60
2023/02/18 04:05:52;;;;;;;3.13;1.40;;;;;;;9.44;100.00;99897.56;5039986;28;20036;-60
2023/02/18 04:08:18;;;;;;;1.45;1.15;;;;;;;9.39;100.00;99904.63;5041652;28;20037;-60
2023/02/18 04:10:43;;;;;;;2.47;1.30;;;;;;;9.40;100.00;99896.34;5040868;28;20049;-60
2023/02/18 04:13:08;;;;;;;3.17;1.73;;;;;;;9.35;100.00;99903.41;5039023;28;20025;-60
2023/02/18 04:15:34;;;;;;;2.95;1.42;;;;;;;9.35;100.00;99906.09;5066641;28;20025;-60
2023/02/18 04:17:59;;;;;;;1.83;1.30;;;;;;;9.32;100.00;99909.19;5034289;28;20029;-60
2023/02/18 04:20:25;;;;;;;2.33;1.20;;;;;;;9.31;100.00;99897.69;5036858;28;20025;-59
2023/02/18 04:22:50;;;;;;;4.57;1.30;;;;;;;9.25;100.00;99898.53;5039403;28;20082;-60
2023/02/18 04:25:16;;;;;;;1.95;1.30;;;;;;;9.19;100.00;99894.88;5039365;28;20044;-60
2023/02/18 04:27:41;;;;;;;3.72;1.10;;;;;;;9.07;100.00;99899.28;5044209;28;20032;-60
2023/02/18 04:30:07;;;;;;;2.25;1.60;;;;;;;9.10;100.00;99896.19;5037689;28;20037;-60
2023/02/18 04:32:32;;;;;;;2.40;1.20;;;;;;;9.04;100.00;99897.06;5042719;28;20106;-60
2023/02/18 04:34:57;;;;;;;2.72;1.25;;;;;;;9.04;100.00;99894.38;5043978;28;20037;-60
2023/02/18 04:37:23;;;;;;;3.05;1.40;;;;;;;8.97;100.00;99890.94;5043318;28;20033;-60
2023/02/18 04:39:48;;;;;;;3.30;1.42;;;;;;;8.94;100.00;99891.34;5035497;28;20429;-60
2023/02/18 04:42:14;;;;;;;4.05;1.50;;;;;;;8.95;100.00;99893.00;5044831;28;20047;-60
2023/02/18 04:44:39;;;;;;;3.50;1.80;;;;;;;8.97;100.00;99885.56;5039050;28;20541;-60
2023/02/18 04:47:05;;;;;;;1.77;1.30;;;;;;;8.97;100.00;99885.56;5048147;28;20032;-60
2023/02/18 04:49:30;;;;;;;3.00;1.40;;;;;;;8.88;100.00;99887.66;5048567;28;20044;-60
2023/02/18 04:51:56;;;;;;;3.28;2.50;;;;;;;8.91;100.00;99870.38;5036612;28;20131;-60
2023/02/18 04:54:21;;;;;;;2.92;1.25;;;;;;;8.85;100.00;99861.38;5043826;28;20036;-60
2023/02/18 04:56:47;;;;;;;2.13;1.52;;;;;;;8.81;100.00;99861.00;5041751;28;20076;-60
2023/02/18 04:59:12;;;;;;;1.98;1.40;;;;;;;8.87;100.00;99842.47;5041009;28;20033;-60
2023/02/18 05:01:37;;;;;;;4.70;1.65;;;;;;;8.87;100.00;99859.31;5042281;28;20022;-60
2023/02/18 05:04:03;;;;;;;1.95;1.52;;;;;;;8.83;100.00;99858.91;5039678;28;20021;-60
2023/02/18 05:06:28;;;;;;;2.60;1.60;;;;;;;8.82;100.00;99862.63;5042302;28;20032;-60
2023/02/18 05:08:54;;;;;;;3.38;1.60;;;;;;;8.76;100.00;99860.84;5044621;28;20036;-60
2023/02/18 05:11:19;;;;;;;3.83;1.42;;;;;;;8.77;100.00;99864.31;5043985;28;20049;-60
2023/02/18 05:13:45;;;;;;;4.15;1.90;;;;;;;8.63;100.00;99859.03;5041362;28;20025;-60
2023/02/18 05:16:10;;;;;;;3.20;1.63;;;;;;;8.68;100.00;99855.72;5046309;28;20052;-60
2023/02/18 05:18:35;;;;;;;2.58;1.52;;;;;;;8.64;100.00;99855.34;5047180;28;20033;-59
2023/02/18 05:21:01;;;;;;;4.15;1.50;;;;;;;8.59;100.00;99851.69;5046609;28;20480;-60
2023/02/18 05:23:26;;;;;;;2.92;1.80;;;;;;;8.57;100.00;99859.91;5049438;28;20502;-61
2023/02/18 05:25:52;;;;;;;3.53;1.88;;;;;;;8.67;100.00;99864.78;5042071;28;20431;-60
2023/02/18 05:28:17;;;;;;;2.08;1.35;;;;;;;8.67;100.00;99864.78;5042038;28;20036;-60
2023/02/18 05:30:42;;;;;;;4.60;1.77;;;;;;;8.64;100.00;99854.53;5044446;28;20028;-60
2023/02/18 05:33:08;;;;;;;3.78;2.05;;;;;;;8.59;100.00;99854.34;5043660;28;20020;-59
2023/02/18 05:35:33;;;;;;;3.38;2.00;;;;;;;8.55;100.00;99858.47;5046452;28;20036;-60
2023/02/18 05:37:59;;;;;;;5.10;2.20;;;;;;;8.55;100.00;99850.47;5054260;28;20418;-59
2023/02/18 05:40:24;;;;;;;6.43;2.55;;;;;;;8.47;100.00;99850.72;5043440;28;20083;-59
2023/02/18 05:42:49;;;;;;;6.70;2.70;;;;;;;8.47;100.00;99840.84;5036373;28;20029;-60
2023/02/18 05:45:15;;;;;;;4.30;2.45;;;;;;;8.45;100.00;99836.75;5045563;28;20489;-60
2023/02/18 05:47:40;;;;;;;5.75;2.90;;;;;;;8.51;100.00;99838.53;5042758;28;20665;-60
2023/02/18 05:50:06;;;;;;;6.00;3.20;;;;;;;8.47;100.00;99838.16;5042245;28;20726;-60
2023/02/18 05:52:32;;;;;;;6.90;3.00;;;;;;;8.49;100.00;99836.09;5044682;28;20373;-60
2023/02/18 05:54:57;;;;;;;6.15;3.35;;;;;;;8.50;100.00;99848.41;5046835;28;20028;-60
2023/02/18 05:57:23;;;;;;;8.40;3.90;;;;;;;8.54;100.00;99843.50;5040392;28;20052;-60
2023/02/18 05:59:48;;;;;;;6.47;3.85;;;;;;;8.56;100.00;99850.25;5038808;28;20032;-59
2023/02/18 06:02:13;;;;;;;7.53;4.25;;;;;;;8.57;100.00;99837.72;5045702;28;20021;-60
2023/02/18 06:04:39;;;;;;;6.97;3.70;;;;;;;8.60;100.00;99842.63;5039080;28;20728;-59
2023/02/18 06:07:05;;;;;;;6.30;3.40;;;;;;;8.59;100.00;99841.00;5042311;28;20018;-59
2023/02/18 06:09:30;;;;;;;6.43;3.75;;;;;;;8.54;100.00;99827.47;5041227;28;20033;-59
2023/02/18 06:11:55;;;;;;;8.07;4.32;;;;;;;8.54;100.00;99822.94;5040727;28;20075;-60
2023/02/18 06:14:21;;;;;;;7.50;3.58;;;;;;;8.60;100.00;99831.94;5037331;28;20025;-59
2023/02/18 06:16:46;;;;;;;6.85;3.30;;;;;;;8.53;100.00;99836.50;5040218;28;20051;-59
2023/02/18 06:19:12;;;;;;;7.65;4.78;;;;;;;8.56;100.00;99846.75;5042660;28;20026;-59
2023/02/18 06:21:37;;;;;;;7.38;4.50;;;;;;;8.52;100.00;99826.84;5041893;28;20059;-59
2023/02/18 06:24:03;;;;;;;5.20;3.30;;;;;;;8.62;100.00;99845.91;5044831;28;20379;-59
2023/02/18 06:26:28;;;;;;;6.15;3.88;;;;;;;8.73;100.00;99845.19;5044653;28;20487;-59
2023/02/18 06:28:54;;;;;;;4.95;3.00;;;;;;;8.71;100.00;99838.44;5044129;28;20434;-59
2023/02/18 06:31:19;;;;;;;9.50;3.40;;;;;;;8.72;100.00;99837.41;5044910;28;20032;-59
2023/02/18 06:33:44;;;;;;;6.05;3.58;;;;;;;8.75;100.00;99836.97;5039493;28;20025;-59
2023/02/18 06:36:10;;;;;;;4.82;2.50;;;;;;;8.73;100.00;99818.47;5040216;28;20035;-59
2023/02/18 06:38:39;;;;;;;7.40;4.32;;;;;;;8.74;100.00;99817.47;5045444;28;20448;-60
2023/02/18 06:41:05;;;;;;;10.68;7.20;;;;;;;8.78;100.00;99815.97;5040673;28;20021;-59
2023/02/18 06:43:30;;;;;;;7.68;2.90;;;;;;;8.81;100.00;99825.41;5034658;28;20029;-59
2023/02/18 06:45:56;;;;;;;8.27;4.90;;;;;;;8.83;100.00;99826.84;5037239;28;20029;-59
2023/02/18 06:48:21;;;;;;;9.50;5.68;;;;;;;8.89;100.00;99824.34;5037586;28;20032;-59
2023/02/18 06:50:47;;;;;;;8.27;3.10;;;;;;;8.89;100.00;99819.00;5037967;28;20032;-59
2023/02/18 06:53:12;;;;;;;10.23;7.35;;;;;;;8.96;100.00;99820.59;5040550;28;20104;-60
2023/02/18 06:55:38;;;;;;;31.23;23.85;;;;;;;9.04;100.00;99824.84;5037590;28;20025;-59
2023/02/18 06:58:03;;;;;;;10.23;7.25;;;;;;;9.02;100.00;99814.38;5038426;28;20029;-59
2023/02/18 07:00:30;;;;;;;13.13;9.65;;;;;;;9.01;100.00;99806.56;5036085;28;20029;-59
2023/02/18 07:02:55;;;;;;;6.78;2.65;;;;;;;9.07;100.00;99813.72;5044713;28;20020;-59
2023/02/18 07:05:21;;;;;;;3.53;2.42;;;;;;;8.99;100.00;99814.00;5038385;28;20040;-59
2023/02/18 07:07:46;;;;;;;2.92;1.80;;;;;;;8.96;100.00;99814.41;5046370;28;20043;-59
2023/02/18 07:10:12;;;;;;;3.97;2.58;;;;;;;8.82;100.00;99808.34;5034537;28;20038;-60
2023/02/18 07:12:37;;;;;;;8.90;5.88;;;;;;;8.90;100.00;99793.91;5038759;28;20029;-59
2023/02/18 07:15:03;;;;;;;7.68;3.35;;;;;;;8.98;100.00;99801.66;5034651;28;20037;-59
2023/02/18 07:17:28;;;;;;;7.65;4.50;;;;;;;8.91;100.00;99795.53;5034876;28;20475;-59
2023/02/18 07:19:55;;;;;;;13.60;10.75;;;;;;;8.92;100.00;99807.88;5034055;28;20021;-59
2023/02/18 07:22:20;;;;;;;4.45;1.90;;;;;;;9.25;100.00;99807.59;5040271;28;20045;-59
2023/02/18 07:24:51;;;;;;;4.40;2.50;;;;;;;9.32;99.19;99802.19;5039418;28;20488;-59
2023/02/18 07:27:16;;;;;;;;;;;;;;;9.39;98.10;99802.94;5041768;28;20056;-59
2023/02/18 07:29:42;;;;;;;6.10;4.10;;;;;;;9.70;98.70;99802.81;5036159;28;20482;-59
2023/02/18 07:32:07;;;;;;;4.13;2.53;;;;;;;10.00;95.14;99812.78;5036573;28;20190;-59
2023/02/18 07:34:32;;;;;;;4.43;2.67;;;;;;;9.91;95.22;99800.75;5037758;28;20468;-59
2023/02/18 07:36:58;;;;;;;20.33;11.25;;;;;;;9.68;96.37;99807.59;5034032;28;20033;-58
2023/02/18 07:39:23;;;;;;;2.28;1.30;;;;;;;9.29;98.31;99809.63;5046463;28;20776;-58
2023/02/18 07:41:49;;;;;;;6.20;2.70;;;;;;;9.34;100.00;99794.78;5045942;28;20024;-59
2023/02/18 07:44:14;;;;;;;9.45;5.75;;;;;;;9.37;100.00;99797.00;5034330;28;20060;-59
2023/02/18 07:46:40;;;;;;;4.68;3.10;;;;;;;9.26;100.00;99794.00;5041233;28;20032;-59
2023/02/18 07:49:05;;;;;;;12.18;9.63;;;;;;;9.37;100.00;99789.78;5066149;28;20388;-59
2023/02/18 07:51:31;;;;;;;5.78;3.28;;;;;;;9.40;99.01;99788.53;5062173;28;20029;-59
2023/02/18 07:53:56;;;;;;;7.78;5.53;;;;;;;9.38;97.88;99788.72;5048911;28;20029;-58
2023/02/18 07:56:22;;;;;;;10.75;5.15;;;;;;;9.40;98.82;99810.75;5037472;28;20074;-58
2023/02/18 07:58:47;;;;;;;5.22;3.22;;;;;;;9.46;97.89;99815.22;5041874;28;20476;-58
2023/02/18 08:01:13;;;;;;;8.30;2.28;;;;;;;9.68;96.78;99812.09;5043388;28;20028;-59
2023/02/18 08:03:39;;;;;;;7.05;3.67;;;;;;;9.76;96.01;99800.28;5041546;28;20036;-58
2023/02/18 08:06:05;;;;;;;6.20;2.30;;;;;;;9.60;97.14;99821.25;5044451;28;20460;-59
2023/02/18 08:08:31;;;;;;;5.95;3.30;;;;;;;9.48;97.58;99828.38;5040056;28;20147;-59
2023/02/18 08:10:58;;;;;;;5.20;3.00;;;;;;;9.62;96.30;99829.06;5044217;28;20048;-60
2023/02/18 08:13:23;;;;;;;6.22;3.20;;;;;;;9.56;96.27;99846.84;5039512;28;20108;-59
2023/02/18 08:15:49;;;;;;;2.65;1.88;;;;;;;9.51;95.70;99846.69;5042910;28;20031;-60
2023/02/18 08:18:17;;;;;;;8.25;5.20;;;;;;;9.54;96.28;99850.78;5039320;28;20017;-59
2023/02/18 08:20:43;;;;;;;9.82;4.53;;;;;;;9.53;95.89;99849.94;5042237;28;20116;-60
2023/02/18 08:23:09;;;;;;;6.28;4.50;;;;;;;9.62;94.80;99840.59;5043707;28;20116;-60
2023/02/18 08:25:34;;;;;;;30.33;20.45;;;;;;;9.71;93.26;99847.31;5029517;28;20071;-60
2023/02/18 08:28:00;;;;;;;13.18;6.40;;;;;;;9.99;93.70;99843.28;5034514;28;20029;-60
2023/02/18 08:30:25;;;;;;;4.80;2.50;;;;;;;9.98;89.54;99838.97;5043449;28;20376;-60
2023/02/18 08:32:51;;;;;;;2.63;1.73;;;;;;;10.19;89.80;99834.22;5043375;28;20040;-60
2023/02/18 08:35:17;;;;;;;4.55;1.90;;;;;;;10.25;88.19;99844.00;5036136;28;20897;-59
2023/02/18 08:37:42;;;;;;;3.65;1.95;;;;;;;10.02;88.01;99845.53;5043497;28;20666;-60
2023/02/18 08:40:11;;;;;;;1.10;1.00;;;;;;;9.84;87.23;99849.03;5037264;28;20036;-59
2023/02/18 08:42:36;;;;;;;4.65;1.90;;;;;;;10.01;87.37;99851.94;5044787;28;20048;-60
2023/02/18 08:45:02;;;;;;;3.42;1.30;;;;;;;10.12;86.22;99861.88;5041318;28;20483;-59
2023/02/18 08:47:27;;;;;;;0.88;0.82;;;;;;;10.08;85.32;99865.22;5048244;28;20064;-60
2023/02/18 08:49:53;;;;;;;3.97;1.40;;;;;;;10.09;85.56;99851.63;5037783;28;20010;-59
2023/02/18 08:52:18;;;;;;;2.20;1.40;;;;;;;10.18;85.50;99851.31;5038837;28;20036;-60
2023/02/18 08:54:44;;;;;;;1.52;1.10;;;;;;;10.04;86.21;99856.03;5039506;28;20036;-60
2023/02/18 08:57:09;;;;;;;1.77;1.20;;;;;;;9.92;86.35;99845.22;5039463;28;20025;-60
2023/02/18 08:59:35;;;;;;;0.90;0.90;;;;;;;9.93;85.96;99857.56;5037247;28;20094;-60
2023/02/18 09:02:00;;;;;;;13.98;4.60;;;;;;;9.98;85.44;99857.72;5043325;28;20028;-59
2023/02/18 09:04:25;;;;;;;4.18;1.33;;;;;;;9.91;85.63;99862.34;5045149;28;20486;-60
2023/02/18 09:06:51;;;;;;;2.83;1.77;;;;;;;9.97;86.28;99868.66;5044352;28;20492;-60
2023/02/18 09:09:16;;;;;;;7.22;3.50;;;;;;;10.06;86.20;99868.16;5033391;28;20619;-60
2023/02/18 09:11:42;;;;;;;8.73;5.00;;;;;;;9.93;85.69;99870.94;5047394;28;20103;-59
2023/02/18 09:14:07;;;;;;;3.90;2.58;;;;;;;9.97;86.68;99884.72;5041188;28;20427;-60
2023/02/18 09:16:33;;;;;;;2.20;1.60;;;;;;;9.94;85.77;99897.50;5038628;28;20472;-60
2023/02/18 09:18:58;;;;;;;6.40;3.40;;;;;;;9.94;86.02;99894.03;5034472;28;20029;-60
2023/02/18 09:21:25;;;;;;;7.47;4.80;;;;;;;9.97;85.17;99887.41;5039864;28;20024;-60
2023/02/18 09:23:50;;;;;;;11.57;7.78;;;;;;;9.93;85.83;99895.03;5038926;28;20020;-60
2023/02/18 09:26:17;;;;;;;10.55;6.15;;;;;;;9.98;85.79;99892.53;5042788;28;20082;-60
2023/02/18 09:28:42;;;;;;;27.42;15.82;;;;;;;9.99;86.00;99904.88;5043932;28;20024;-60
2023/02/18 09:31:10;;;;;;;26.30;12.60;;;;;;;10.08;87.23;99916.09;5040716;28;20382;-59
2023/02/18 09:33:36;;;;;;;28.88;13.57;;;;;;;9.95;90.35;99909.03;5020744;28;20037;-59
2023/02/18 09:36:02;;;;;;;54.25;20.48;;;;;;;9.85;88.43;99914.91;5042573;28;20025;-60
2023/02/18 09:38:27;;;;;;;21.95;9.10;;;;;;;9.81;88.42;99908.38;5037791;28;20033;-60
2023/02/18 09:40:56;;;;;;;7.35;3.05;;;;;;;9.63;88.47;99911.00;5037579;28;20380;-59
2023/02/18 09:43:33;;;;;;;8.45;5.07;;;;;;;9.56;90.20;99910.22;5042077;28;20033;-59
2023/02/18 09:45:59;;;;;;;4.10;2.63;;;;;;;9.65;88.71;99903.56;5036891;28;20040;-59
2023/02/18 09:48:26;;;;;;;4.47;1.90;;;;;;;9.75;88.34;99892.34;5024805;28;20355;-59
2023/02/18 09:50:52;;;;;;;5.15;1.60;;;;;;;9.71;88.38;99898.16;5039792;28;20082;-59
2023/02/18 09:53:18;;;;;;;3.80;1.40;;;;;;;9.70;87.42;99901.84;5041073;28;20032;-60
2023/02/18 09:55:45;;;;;;;7.20;1.77;;;;;;;9.86;86.36;99876.38;5042325;28;20033;-59
2023/02/18 09:58:15;;;;;;;4.03;1.52;;;;;;;9.89;84.95;99881.28;5032354;28;20033;-59
2023/02/18 10:00:47;;;;;;;3.08;1.63;;;;;;;9.89;82.54;99877.81;5023551;28;20486;-59
2023/02/18 10:03:19;;;;;;;6.03;1.73;;;;;;;9.78;82.93;99870.50;5055128;28;20048;-60
2023/02/18 10:05:58;;;;;;;7.22;2.20;;;;;;;9.77;81.64;99872.34;5037212;28;20417;-59
2023/02/18 10:08:26;;;;;;;6.53;1.90;;;;;;;9.89;81.10;99867.91;5042304;28;20107;-59
2023/02/18 10:10:51;;;;;;;5.38;2.05;;;;;;;9.90;81.78;99874.06;5038018;28;20048;-59
2023/02/18 10:13:22;;;;;;;7.57;1.95;;;;;;;9.94;81.25;99864.56;5044545;28;20021;-59
2023/02/18 10:15:47;;;;;;;8.02;2.03;;;;;;;9.89;80.56;99861.75;5043067;28;20060;-59
2023/02/18 10:18:24;;;;;;;3.28;1.65;;;;;;;9.91;82.27;99865.84;5036872;28;20025;-59
2023/02/18 10:20:52;;;;;;;6.82;2.20;;;;;;;10.00;81.32;99850.28;5036341;28;20026;-59
2023/02/18 10:23:18;;;;;;;17.40;2.05;;;;;;;10.28;81.41;99852.47;5042295;28;20029;-59
2023/02/18 10:25:44;;;;;;;9.30;2.42;;;;;;;10.30;80.26;99846.88;5042493;28;20119;-59
2023/02/18 10:28:10;;;;;;;7.95;2.13;;;;;;;10.22;80.79;99849.81;5032246;28;20499;-58
2023/02/18 10:30:45;;;;;;;8.32;2.05;;;;;;;10.29;81.78;99837.22;5027591;28;20688;-59
2023/02/18 10:33:21;;;;;;;7.00;2.33;;;;;;;10.12;81.82;99839.63;5027639;28;20117;-58
2023/02/18 10:35:52;;;;;;;6.72;2.13;;;;;;;10.18;81.43;99852.13;5043938;28;20127;-58
2023/02/18 10:38:57;;;;;;;6.45;2.65;;;;;;;10.03;82.21;99852.50;5034079;28;20029;-58
2023/02/18 10:41:25;;;;;;;12.15;2.28;;;;;;;10.06;82.99;99862.78;5035297;28;20041;-60
2023/02/18 10:43:55;;;;;;;5.32;2.35;;;;;;;9.90;83.48;99868.72;5039764;28;20132;-59
2023/02/18 10:46:40;;;;;;;5.28;2.47;;;;;;;9.81;84.13;99864.69;5042601;28;20531;-59
2023/02/18 10:49:18;;;;;;;6.05;2.30;;;;;;;9.91;83.96;99857.78;5032699;28;20116;-59
2023/02/18 10:51:49;;;;;;;10.18;2.60;;;;;;;9.86;84.42;99859.47;5040728;28;20039;-59
2023/02/18 10:54:14;;;;;;;4.22;2.30;;;;;;;9.81;85.13;99848.63;5039909;28;20022;-59
2023/02/18 10:56:50;;;;;;;9.68;2.30;;;;;;;9.76;86.26;99845.78;5048751;28;20744;-59
2023/02/18 10:59:22;;;;;;;7.88;2.50;;;;;;;9.74;85.74;99850.56;5024306;28;20022;-58
2023/02/18 11:02:17;;;;;;;4.88;2.15;;;;;;;9.61;86.61;99841.63;5040262;28;20029;-59
2023/02/18 11:04:43;;;;;;;6.90;2.30;;;;;;;9.56;86.51;99852.19;5041811;28;20330;-59
2023/02/18 11:07:13;;;;;;;8.70;2.25;;;;;;;9.57;87.36;99847.66;5033662;28;20032;-58
2023/02/18 11:09:51;;;;;;;14.65;3.75;;;;;;;9.56;87.31;99836.13;5051284;28;20061;-61
2023/02/18 11:12:23;;;;;;;6.95;2.35;;;;;;;9.51;87.27;99827.94;5049835;28;20559;-59
2023/02/18 11:15:01;;;;;;;9.23;2.70;;;;;;;9.65;87.57;99823.28;5023285;28;20025;-58
2023/02/18 11:17:29;;;;;;;7.60;2.75;;;;;;;9.63;87.01;99825.34;5045181;28;20037;-58
2023/02/18 11:19:56;;;;;;;5.15;2.22;;;;;;;9.55;87.40;99829.13;5036033;28;20024;-58
2023/02/18 11:22:28;;;;;;;10.25;2.63;;;;;;;9.62;87.26;99802.31;5039052;28;20029;-59
2023/02/18 11:24:55;;;;;;;12.10;2.60;;;;;;;9.56;87.63;99787.97;5036010;28;20060;-58
2023/02/18 11:27:39;;;;;;;12.63;2.45;;;;;;;9.62;87.92;99796.94;5037608;28;21044;-59
2023/02/18 11:30:06;;;;;;;8.52;2.42;;;;;;;9.63;87.34;99785.19;5042066;28;20443;-58
2023/02/18 11:32:33;;;;;;;6.82;2.30;;;;;;;9.63;87.44;99777.97;5032444;28;20575;-59
2023/02/18 11:34:59;;;;;;;6.95;2.10;;;;;;;9.73;86.83;99780.13;5047693;28;20025;-59
2023/02/18 11:37:24;;;;;;;9.13;2.38;;;;;;;9.80;86.93;99788.09;5030479;28;20036;-58
2023/02/18 11:39:52;;;;;;;7.00;2.20;;;;;;;9.79;87.50;99783.81;5041635;28;20051;-59